sensor_id;sensor_type;location;lat;lon;timestamp;temperature;humidity
16263;DHT22;8239;48.594;8.598;2023-04-03T00:01:49;1.30;99.90
16263;DHT22;8239;48.594;8.598;2023-04-03T00:04:16;1.30;99.90
16263;DHT22;8239;48.594;8.598;2023-04-03T00:06:43;1.20;99.90
16263;DHT22;8239;48.594;8.598;2023-04-03T00:09:10;1.20;99.90
16263;DHT22;8239;48.594;8.598;2023-04-03T00:11:37;1.30;99.90
16263;DHT22;8239;48.594;8.598;2023-04-03T00:14:04;1.30;99.90
16263;DHT22;8239;48.594;8.598;2023-04-03T00:16:31;1.30;99.90
16263;DHT22;8239;48.594;8.598;2023-04-03T00:19:00;1.30;99.90
16263;DHT22;8239;48.594;8.598;2023-04-03T00:21:27;1.30;99.90
16263;DHT22;8239;48.594;8.598;2023-04-03T00:23:54;1.30;99.90
16263;DHT22;8239;48.594;8.598;2023-04-03T00:26:21;1.20;99.90
16263;DHT22;8239;48.594;8.598;2023-04-03T00:28:48;1.20;99.90
16263;DHT22;8239;48.594;8.598;2023-04-03T00:31:15;1.30;99.90
16263;DHT22;8239;48.594;8.598;2023-04-03T00:33:42;1.20;99.90
16263;DHT22;8239;48.594;8.598;2023-04-03T00:36:12;1.20;99.90
16263;DHT22;8239;48.594;8.598;2023-04-03T00:38:39;1.20;99.90
16263;DHT22;8239;48.594;8.598;2023-04-03T00:41:07;1.20;99.90
16263;DHT22;8239;48.594;8.598;2023-04-03T00:43:34;1.20;99.90
16263;DHT22;8239;48.594;8.598;2023-04-03T00:46:02;1.20;99.90
16263;DHT22;8239;48.594;8.598;2023-04-03T00:48:30;1.20;99.90
16263;DHT22;8239;48.594;8.598;2023-04-03T00:50:59;1.20;99.90
16263;DHT22;8239;48.594;8.598;2023-04-03T00:53:29;1.20;99.90
16263;DHT22;8239;48.594;8.598;2023-04-03T00:55:57;1.20;99.90
16263;DHT22;8239;48.594;8.598;2023-04-03T00:58:31;1.20;99.90
16263;DHT22;8239;48.594;8.598;2023-04-03T01:01:03;1.20;99.90
16263;DHT22;8239;48.594;8.598;2023-04-03T01:03:31;1.20;99.90
16263;DHT22;8239;48.594;8.598;2023-04-03T01:05:59;1.20;99.90
16263;DHT22;8239;48.594;8.598;2023-04-03T01:08:27;1.20;99.90
16263;DHT22;8239;48.594;8.598;2023-04-03T01:10:55;1.20;99.90
16263;DHT22;8239;48.594;8.598;2023-04-03T01:13:25;1.20;99.90
16263;DHT22;8239;48.594;8.598;2023-04-03T01:15:52;1.30;99.90
16263;DHT22;8239;48.594;8.598;2023-04-03T01:18:19;1.20;99.90
16263;DHT22;8239;48.594;8.598;2023-04-03T01:23:58;1.30;99.90
16263;DHT22;8239;48.594;8.598;2023-04-03T01:26:27;1.30;99.90
16263;DHT22;8239;48.594;8.598;2023-04-03T01:28:55;1.30;99.90
16263;DHT22;8239;48.594;8.598;2023-04-03T01:31:25;1.30;99.90
16263;DHT22;8239;48.594;8.598;2023-04-03T01:33:55;1.30;99.90
16263;DHT22;8239;48.594;8.598;2023-04-03T01:36:24;1.30;99.90
16263;DHT22;8239;48.594;8.598;2023-04-03T01:38:53;1.30;99.90
16263;DHT22;8239;48.594;8.598;2023-04-03T01:41:20;1.30;99.90
16263;DHT22;8239;48.594;8.598;2023-04-03T01:43:48;1.30;99.90
16263;DHT22;8239;48.594;8.598;2023-04-03T01:46:16;1.30;99.90
16263;DHT22;8239;48.594;8.598;2023-04-03T01:48:43;1.30;99.90
16263;DHT22;8239;48.594;8.598;2023-04-03T01:51:11;1.30;99.90
16263;DHT22;8239;48.594;8.598;2023-04-03T01:53:38;1.30;99.90
16263;DHT22;8239;48.594;8.598;2023-04-03T01:56:06;1.30;99.90
16263;DHT22;8239;48.594;8.598;2023-04-03T01:58:33;1.30;99.90
16263;DHT22;8239;48.594;8.598;2023-04-03T02:01:00;1.30;99.90
16263;DHT22;8239;48.594;8.598;2023-04-03T02:03:28;1.20;99.90
16263;DHT22;8239;48.594;8.598;2023-04-03T02:05:55;1.20;99.90
16263;DHT22;8239;48.594;8.598;2023-04-03T02:08:23;1.20;99.90
16263;DHT22;8239;48.594;8.598;2023-04-03T02:10:51;1.10;99.90
16263;DHT22;8239;48.594;8.598;2023-04-03T02:13:18;1.10;99.90
16263;DHT22;8239;48.594;8.598;2023-04-03T02:15:46;1.10;99.90
16263;DHT22;8239;48.594;8.598;2023-04-03T02:18:15;1.00;99.90
16263;DHT22;8239;48.594;8.598;2023-04-03T02:20:42;1.00;99.90
16263;DHT22;8239;48.594;8.598;2023-04-03T02:23:09;0.90;99.90
16263;DHT22;8239;48.594;8.598;2023-04-03T02:25:38;0.90;99.90
16263;DHT22;8239;48.594;8.598;2023-04-03T02:28:05;0.90;99.90
16263;DHT22;8239;48.594;8.598;2023-04-03T02:30:32;0.90;99.90
16263;DHT22;8239;48.594;8.598;2023-04-03T02:32:59;0.80;99.90
16263;DHT22;8239;48.594;8.598;2023-04-03T02:35:26;0.80;99.90
16263;DHT22;8239;48.594;8.598;2023-04-03T02:37:53;0.80;99.90
16263;DHT22;8239;48.594;8.598;2023-04-03T02:40:21;0.80;99.90
16263;DHT22;8239;48.594;8.598;2023-04-03T02:42:49;0.70;99.90
16263;DHT22;8239;48.594;8.598;2023-04-03T02:45:16;0.70;99.90
16263;DHT22;8239;48.594;8.598;2023-04-03T02:47:43;0.70;99.90
16263;DHT22;8239;48.594;8.598;2023-04-03T02:50:10;0.70;99.90
16263;DHT22;8239;48.594;8.598;2023-04-03T02:52:38;0.70;99.90
16263;DHT22;8239;48.594;8.598;2023-04-03T02:55:06;0.70;99.90
16263;DHT22;8239;48.594;8.598;2023-04-03T02:57:33;0.70;99.90
16263;DHT22;8239;48.594;8.598;2023-04-03T03:00:02;0.70;99.90
16263;DHT22;8239;48.594;8.598;2023-04-03T03:02:30;0.70;99.90
16263;DHT22;8239;48.594;8.598;2023-04-03T03:04:57;0.70;99.90
16263;DHT22;8239;48.594;8.598;2023-04-03T03:07:24;0.70;99.90
16263;DHT22;8239;48.594;8.598;2023-04-03T03:09:51;0.70;99.90
16263;DHT22;8239;48.594;8.598;2023-04-03T03:12:19;0.70;99.90
16263;DHT22;8239;48.594;8.598;2023-04-03T03:14:47;0.70;99.90
16263;DHT22;8239;48.594;8.598;2023-04-03T03:17:16;0.70;99.90
16263;DHT22;8239;48.594;8.598;2023-04-03T03:19:43;0.60;99.90
16263;DHT22;8239;48.594;8.598;2023-04-03T03:22:11;0.60;99.90
16263;DHT22;8239;48.594;8.598;2023-04-03T03:24:38;0.60;99.90
16263;DHT22;8239;48.594;8.598;2023-04-03T03:27:05;0.60;99.90
16263;DHT22;8239;48.594;8.598;2023-04-03T03:29:32;0.60;99.90
16263;DHT22;8239;48.594;8.598;2023-04-03T03:31:59;0.50;99.90
16263;DHT22;8239;48.594;8.598;2023-04-03T03:34:28;0.50;99.90
16263;DHT22;8239;48.594;8.598;2023-04-03T03:36:55;0.50;99.90
16263;DHT22;8239;48.594;8.598;2023-04-03T03:39:22;0.50;99.90
16263;DHT22;8239;48.594;8.598;2023-04-03T03:41:49;0.40;99.90
16263;DHT22;8239;48.594;8.598;2023-04-03T03:44:16;0.40;99.90
16263;DHT22;8239;48.594;8.598;2023-04-03T03:46:43;0.40;99.90
16263;DHT22;8239;48.594;8.598;2023-04-03T03:49:10;0.40;99.90
16263;DHT22;8239;48.594;8.598;2023-04-03T03:51:39;0.30;99.90
16263;DHT22;8239;48.594;8.598;2023-04-03T03:54:07;0.30;99.90
16263;DHT22;8239;48.594;8.598;2023-04-03T03:56:34;0.30;99.90
16263;DHT22;8239;48.594;8.598;2023-04-03T03:59:01;0.30;99.90
16263;DHT22;8239;48.594;8.598;2023-04-03T04:01:28;0.20;99.90
16263;DHT22;8239;48.594;8.598;2023-04-03T04:03:56;0.20;99.90
16263;DHT22;8239;48.594;8.598;2023-04-03T04:06:23;0.20;99.90
16263;DHT22;8239;48.594;8.598;2023-04-03T04:08:52;0.20;99.90
16263;DHT22;8239;48.594;8.598;2023-04-03T04:11:19;0.20;99.90
16263;DHT22;8239;48.594;8.598;2023-04-03T04:13:47;0.20;99.90
16263;DHT22;8239;48.594;8.598;2023-04-03T04:16:15;0.20;99.90
16263;DHT22;8239;48.594;8.598;2023-04-03T04:18:42;0.30;99.90
16263;DHT22;8239;48.594;8.598;2023-04-03T04:21:10;0.30;99.90
16263;DHT22;8239;48.594;8.598;2023-04-03T04:23:37;0.30;99.90
16263;DHT22;8239;48.594;8.598;2023-04-03T04:26:05;0.30;99.90
16263;DHT22;8239;48.594;8.598;2023-04-03T04:28:32;0.30;99.90
16263;DHT22;8239;48.594;8.598;2023-04-03T04:30:59;0.30;99.90
16263;DHT22;8239;48.594;8.598;2023-04-03T04:33:27;0.30;99.90
16263;DHT22;8239;48.594;8.598;2023-04-03T04:35:54;0.30;99.90
16263;DHT22;8239;48.594;8.598;2023-04-03T04:38:21;0.30;99.90
16263;DHT22;8239;48.594;8.598;2023-04-03T04:40:49;0.30;99.90
16263;DHT22;8239;48.594;8.598;2023-04-03T04:43:17;0.30;99.90
16263;DHT22;8239;48.594;8.598;2023-04-03T04:45:44;0.30;99.90
16263;DHT22;8239;48.594;8.598;2023-04-03T04:48:22;0.30;99.90
16263;DHT22;8239;48.594;8.598;2023-04-03T04:50:49;0.30;99.90
16263;DHT22;8239;48.594;8.598;2023-04-03T04:53:16;0.40;99.90
16263;DHT22;8239;48.594;8.598;2023-04-03T04:55:43;0.40;99.90
16263;DHT22;8239;48.594;8.598;2023-04-03T04:58:10;0.60;99.90
16263;DHT22;8239;48.594;8.598;2023-04-03T05:00:39;0.80;99.90
16263;DHT22;8239;48.594;8.598;2023-04-03T05:03:06;0.80;99.90
16263;DHT22;8239;48.594;8.598;2023-04-03T05:05:33;0.80;99.90
16263;DHT22;8239;48.594;8.598;2023-04-03T05:08:01;0.80;99.90
16263;DHT22;8239;48.594;8.598;2023-04-03T05:10:28;0.80;99.90
16263;DHT22;8239;48.594;8.598;2023-04-03T05:12:55;0.70;99.90
16263;DHT22;8239;48.594;8.598;2023-04-03T05:15:23;0.70;99.90
16263;DHT22;8239;48.594;8.598;2023-04-03T05:17:51;0.70;99.90
16263;DHT22;8239;48.594;8.598;2023-04-03T05:20:18;0.70;99.90
16263;DHT22;8239;48.594;8.598;2023-04-03T05:22:46;0.60;99.90
16263;DHT22;8239;48.594;8.598;2023-04-03T05:25:13;0.60;99.90
16263;DHT22;8239;48.594;8.598;2023-04-03T05:27:40;0.60;99.90
16263;DHT22;8239;48.594;8.598;2023-04-03T05:30:08;0.70;99.90
16263;DHT22;8239;48.594;8.598;2023-04-03T05:32:35;0.70;99.90
16263;DHT22;8239;48.594;8.598;2023-04-03T05:35:05;0.70;99.90
16263;DHT22;8239;48.594;8.598;2023-04-03T05:37:33;0.70;99.90
16263;DHT22;8239;48.594;8.598;2023-04-03T05:40:00;0.70;99.90
16263;DHT22;8239;48.594;8.598;2023-04-03T05:42:27;0.80;99.90
16263;DHT22;8239;48.594;8.598;2023-04-03T05:44:55;0.80;99.90
16263;DHT22;8239;48.594;8.598;2023-04-03T05:47:22;0.80;99.90
16263;DHT22;8239;48.594;8.598;2023-04-03T05:49:51;0.90;99.90
16263;DHT22;8239;48.594;8.598;2023-04-03T05:52:25;0.90;99.90
16263;DHT22;8239;48.594;8.598;2023-04-03T05:54:52;0.90;99.90
16263;DHT22;8239;48.594;8.598;2023-04-03T05:57:20;1.00;99.90
16263;DHT22;8239;48.594;8.598;2023-04-03T05:59:47;1.00;99.90
16263;DHT22;8239;48.594;8.598;2023-04-03T06:02:16;1.10;99.90
16263;DHT22;8239;48.594;8.598;2023-04-03T06:04:43;1.10;99.90
16263;DHT22;8239;48.594;8.598;2023-04-03T06:07:12;1.20;99.90
16263;DHT22;8239;48.594;8.598;2023-04-03T06:09:42;1.20;99.90
16263;DHT22;8239;48.594;8.598;2023-04-03T06:12:10;1.30;99.90
16263;DHT22;8239;48.594;8.598;2023-04-03T06:14:37;1.30;99.90
16263;DHT22;8239;48.594;8.598;2023-04-03T06:17:04;1.40;99.90
16263;DHT22;8239;48.594;8.598;2023-04-03T06:19:32;1.50;99.90
16263;DHT22;8239;48.594;8.598;2023-04-03T06:21:59;1.60;99.90
16263;DHT22;8239;48.594;8.598;2023-04-03T06:24:27;1.70;99.90
16263;DHT22;8239;48.594;8.598;2023-04-03T06:26:55;1.90;99.90
16263;DHT22;8239;48.594;8.598;2023-04-03T06:29:23;1.90;99.90
16263;DHT22;8239;48.594;8.598;2023-04-03T06:31:51;2.00;99.90
16263;DHT22;8239;48.594;8.598;2023-04-03T06:34:18;2.10;99.90
16263;DHT22;8239;48.594;8.598;2023-04-03T06:36:46;2.20;99.90
16263;DHT22;8239;48.594;8.598;2023-04-03T06:39:16;2.20;99.90
16263;DHT22;8239;48.594;8.598;2023-04-03T06:41:43;2.30;99.90
16263;DHT22;8239;48.594;8.598;2023-04-03T06:44:12;2.40;99.90
16263;DHT22;8239;48.594;8.598;2023-04-03T06:46:41;2.50;99.90
16263;DHT22;8239;48.594;8.598;2023-04-03T06:49:09;2.70;99.90
16263;DHT22;8239;48.594;8.598;2023-04-03T06:51:37;2.80;99.90
16263;DHT22;8239;48.594;8.598;2023-04-03T06:54:05;2.90;99.90
16263;DHT22;8239;48.594;8.598;2023-04-03T06:56:34;2.90;99.90
16263;DHT22;8239;48.594;8.598;2023-04-03T06:59:01;2.90;99.90
16263;DHT22;8239;48.594;8.598;2023-04-03T07:01:30;3.00;99.90
16263;DHT22;8239;48.594;8.598;2023-04-03T07:03:57;3.00;99.90
16263;DHT22;8239;48.594;8.598;2023-04-03T07:06:24;3.10;99.90
16263;DHT22;8239;48.594;8.598;2023-04-03T07:08:53;3.00;99.90
16263;DHT22;8239;48.594;8.598;2023-04-03T07:11:20;3.10;99.90
16263;DHT22;8239;48.594;8.598;2023-04-03T07:13:48;3.10;99.90
16263;DHT22;8239;48.594;8.598;2023-04-03T07:16:15;3.10;99.90
16263;DHT22;8239;48.594;8.598;2023-04-03T07:18:43;3.10;99.70
16263;DHT22;8239;48.594;8.598;2023-04-03T07:21:11;3.10;99.90
16263;DHT22;8239;48.594;8.598;2023-04-03T07:23:38;3.00;99.90
16263;DHT22;8239;48.594;8.598;2023-04-03T07:26:05;3.10;99.90
16263;DHT22;8239;48.594;8.598;2023-04-03T07:28:33;3.20;99.90
16263;DHT22;8239;48.594;8.598;2023-04-03T07:31:04;3.30;99.40
16263;DHT22;8239;48.594;8.598;2023-04-03T07:33:32;3.30;97.60
16263;DHT22;8239;48.594;8.598;2023-04-03T07:36:01;3.40;97.80
16263;DHT22;8239;48.594;8.598;2023-04-03T07:38:28;3.50;97.60
16263;DHT22;8239;48.594;8.598;2023-04-03T07:40:55;3.60;97.00
16263;DHT22;8239;48.594;8.598;2023-04-03T07:43:22;3.80;96.70
16263;DHT22;8239;48.594;8.598;2023-04-03T07:45:51;3.90;96.60
16263;DHT22;8239;48.594;8.598;2023-04-03T07:48:20;4.00;96.50
16263;DHT22;8239;48.594;8.598;2023-04-03T07:50:47;4.20;95.40
16263;DHT22;8239;48.594;8.598;2023-04-03T07:53:16;4.40;94.60
16263;DHT22;8239;48.594;8.598;2023-04-03T07:55:45;4.80;94.60
16263;DHT22;8239;48.594;8.598;2023-04-03T07:58:14;5.70;95.10
16263;DHT22;8239;48.594;8.598;2023-04-03T08:00:41;6.50;91.70
16263;DHT22;8239;48.594;8.598;2023-04-03T08:03:10;7.10;87.20
16263;DHT22;8239;48.594;8.598;2023-04-03T08:05:39;7.20;82.40
16263;DHT22;8239;48.594;8.598;2023-04-03T08:08:06;7.10;79.50
16263;DHT22;8239;48.594;8.598;2023-04-03T08:10:35;6.90;75.10
16263;DHT22;8239;48.594;8.598;2023-04-03T08:13:03;6.60;76.50
16263;DHT22;8239;48.594;8.598;2023-04-03T08:15:30;6.50;77.50
16263;DHT22;8239;48.594;8.598;2023-04-03T08:17:57;6.40;78.10
16263;DHT22;8239;48.594;8.598;2023-04-03T08:20:24;6.10;78.60
16263;DHT22;8239;48.594;8.598;2023-04-03T08:22:51;6.00;79.50
16263;DHT22;8239;48.594;8.598;2023-04-03T08:25:18;6.00;81.20
16263;DHT22;8239;48.594;8.598;2023-04-03T08:27:47;6.20;82.80
16263;DHT22;8239;48.594;8.598;2023-04-03T08:30:15;6.30;80.20
16263;DHT22;8239;48.594;8.598;2023-04-03T08:32:42;6.20;78.90
16263;DHT22;8239;48.594;8.598;2023-04-03T08:35:10;6.10;80.40
16263;DHT22;8239;48.594;8.598;2023-04-03T08:37:39;5.90;79.90
16263;DHT22;8239;48.594;8.598;2023-04-03T08:40:14;5.60;79.30
16263;DHT22;8239;48.594;8.598;2023-04-03T08:42:51;5.40;80.70
16263;DHT22;8239;48.594;8.598;2023-04-03T08:45:22;5.20;81.40
16263;DHT22;8239;48.594;8.598;2023-04-03T08:47:55;5.10;82.70
16263;DHT22;8239;48.594;8.598;2023-04-03T08:50:28;5.10;82.80
16263;DHT22;8239;48.594;8.598;2023-04-03T08:52:58;5.20;82.50
16263;DHT22;8239;48.594;8.598;2023-04-03T08:55:27;5.20;82.50
16263;DHT22;8239;48.594;8.598;2023-04-03T08:58:00;5.20;82.40
16263;DHT22;8239;48.594;8.598;2023-04-03T09:00:32;5.30;84.00
16263;DHT22;8239;48.594;8.598;2023-04-03T09:03:01;5.30;82.70
16263;DHT22;8239;48.594;8.598;2023-04-03T09:05:35;5.30;80.30
16263;DHT22;8239;48.594;8.598;2023-04-03T09:08:14;5.30;80.80
16263;DHT22;8239;48.594;8.598;2023-04-03T09:10:45;5.20;80.10
16263;DHT22;8239;48.594;8.598;2023-04-03T09:13:24;5.10;80.10
16263;DHT22;8239;48.594;8.598;2023-04-03T09:15:54;4.80;79.20
16263;DHT22;8239;48.594;8.598;2023-04-03T09:18:26;4.70;80.50
16263;DHT22;8239;48.594;8.598;2023-04-03T09:21:01;4.60;80.20
16263;DHT22;8239;48.594;8.598;2023-04-03T09:23:33;4.50;82.00
16263;DHT22;8239;48.594;8.598;2023-04-03T09:26:05;4.70;84.10
16263;DHT22;8239;48.594;8.598;2023-04-03T09:28:39;5.10;86.80
16263;DHT22;8239;48.594;8.598;2023-04-03T09:31:18;5.50;86.60
16263;DHT22;8239;48.594;8.598;2023-04-03T09:33:45;5.90;83.00
16263;DHT22;8239;48.594;8.598;2023-04-03T09:36:13;6.20;80.90
16263;DHT22;8239;48.594;8.598;2023-04-03T09:38:40;6.40;79.60
16263;DHT22;8239;48.594;8.598;2023-04-03T09:41:15;6.50;79.30
16263;DHT22;8239;48.594;8.598;2023-04-03T09:43:52;6.50;77.20
16263;DHT22;8239;48.594;8.598;2023-04-03T09:46:29;6.50;77.30
16263;DHT22;8239;48.594;8.598;2023-04-03T09:48:58;6.20;74.70
16263;DHT22;8239;48.594;8.598;2023-04-03T09:51:26;6.00;74.50
16263;DHT22;8239;48.594;8.598;2023-04-03T09:53:55;5.90;75.20
16263;DHT22;8239;48.594;8.598;2023-04-03T09:56:25;5.80;73.70
16263;DHT22;8239;48.594;8.598;2023-04-03T09:59:13;5.80;75.30
16263;DHT22;8239;48.594;8.598;2023-04-03T10:01:43;5.80;75.40
16263;DHT22;8239;48.594;8.598;2023-04-03T10:04:22;5.70;75.30
16263;DHT22;8239;48.594;8.598;2023-04-03T10:06:51;5.70;75.70
16263;DHT22;8239;48.594;8.598;2023-04-03T10:09:20;5.70;75.30
16263;DHT22;8239;48.594;8.598;2023-04-03T10:12:00;5.70;75.60
16263;DHT22;8239;48.594;8.598;2023-04-03T10:14:32;5.80;76.90
16263;DHT22;8239;48.594;8.598;2023-04-03T10:17:11;5.80;77.60
16263;DHT22;8239;48.594;8.598;2023-04-03T10:19:41;5.80;78.00
16263;DHT22;8239;48.594;8.598;2023-04-03T10:22:18;5.70;78.70
16263;DHT22;8239;48.594;8.598;2023-04-03T10:24:56;5.70;80.30
16263;DHT22;8239;48.594;8.598;2023-04-03T10:27:35;5.80;80.50
16263;DHT22;8239;48.594;8.598;2023-04-03T10:30:19;5.90;80.30
16263;DHT22;8239;48.594;8.598;2023-04-03T10:32:58;6.10;80.50
16263;DHT22;8239;48.594;8.598;2023-04-03T10:35:37;6.40;80.50
16263;DHT22;8239;48.594;8.598;2023-04-03T10:38:18;6.60;77.60
16263;DHT22;8239;48.594;8.598;2023-04-03T10:40:52;6.70;74.50
16263;DHT22;8239;48.594;8.598;2023-04-03T10:43:28;6.80;73.20
16263;DHT22;8239;48.594;8.598;2023-04-03T10:46:04;6.80;73.50
16263;DHT22;8239;48.594;8.598;2023-04-03T10:48:48;6.80;73.30
16263;DHT22;8239;48.594;8.598;2023-04-03T10:51:23;6.70;74.30
16263;DHT22;8239;48.594;8.598;2023-04-03T10:53:56;6.70;75.50
16263;DHT22;8239;48.594;8.598;2023-04-03T10:56:31;6.60;76.30
16263;DHT22;8239;48.594;8.598;2023-04-03T10:59:13;6.60;75.70
16263;DHT22;8239;48.594;8.598;2023-04-03T11:01:47;6.40;75.40
16263;DHT22;8239;48.594;8.598;2023-04-03T11:04:16;6.20;75.70
16263;DHT22;8239;48.594;8.598;2023-04-03T11:06:49;6.00;76.70
16263;DHT22;8239;48.594;8.598;2023-04-03T11:09:23;5.90;77.50
16263;DHT22;8239;48.594;8.598;2023-04-03T11:11:55;5.90;78.00
16263;DHT22;8239;48.594;8.598;2023-04-03T11:14:26;5.80;78.20
16263;DHT22;8239;48.594;8.598;2023-04-03T11:17:04;5.80;78.90
16263;DHT22;8239;48.594;8.598;2023-04-03T11:19:35;5.70;77.70
16263;DHT22;8239;48.594;8.598;2023-04-03T11:22:10;5.70;77.30
16263;DHT22;8239;48.594;8.598;2023-04-03T11:24:40;5.60;76.20
16263;DHT22;8239;48.594;8.598;2023-04-03T11:27:16;5.60;77.00
16263;DHT22;8239;48.594;8.598;2023-04-03T11:29:45;5.60;78.00
16263;DHT22;8239;48.594;8.598;2023-04-03T11:32:36;5.60;78.20
16263;DHT22;8239;48.594;8.598;2023-04-03T11:35:07;5.60;77.80
16263;DHT22;8239;48.594;8.598;2023-04-03T11:37:39;5.70;76.80
16263;DHT22;8239;48.594;8.598;2023-04-03T11:40:13;5.70;77.20
16263;DHT22;8239;48.594;8.598;2023-04-03T11:42:47;5.80;76.80
16263;DHT22;8239;48.594;8.598;2023-04-03T11:45:34;6.00;77.00
16263;DHT22;8239;48.594;8.598;2023-04-03T11:48:06;6.10;77.10
16263;DHT22;8239;48.594;8.598;2023-04-03T11:50:44;6.30;77.00
16263;DHT22;8239;48.594;8.598;2023-04-03T11:53:34;6.40;76.50
16263;DHT22;8239;48.594;8.598;2023-04-03T11:56:28;6.40;75.30
16263;DHT22;8239;48.594;8.598;2023-04-03T11:59:26;6.50;73.90
16263;DHT22;8239;48.594;8.598;2023-04-03T12:01:55;6.60;72.40
16263;DHT22;8239;48.594;8.598;2023-04-03T12:04:26;6.80;73.30
16263;DHT22;8239;48.594;8.598;2023-04-03T12:07:13;7.00;73.50
16263;DHT22;8239;48.594;8.598;2023-04-03T12:12:56;7.80;72.50
16263;DHT22;8239;48.594;8.598;2023-04-03T12:15:54;8.10;71.10
16263;DHT22;8239;48.594;8.598;2023-04-03T12:18:57;8.20;69.00
16263;DHT22;8239;48.594;8.598;2023-04-03T12:24:28;8.40;67.30
16263;DHT22;8239;48.594;8.598;2023-04-03T12:27:05;8.20;67.10
16263;DHT22;8239;48.594;8.598;2023-04-03T12:29:39;8.10;66.00
16263;DHT22;8239;48.594;8.598;2023-04-03T12:32:17;7.80;64.50
16263;DHT22;8239;48.594;8.598;2023-04-03T12:35:10;7.80;66.70
16263;DHT22;8239;48.594;8.598;2023-04-03T12:38:00;7.80;66.90
16263;DHT22;8239;48.594;8.598;2023-04-03T12:40:39;7.70;67.20
16263;DHT22;8239;48.594;8.598;2023-04-03T12:43:17;7.70;66.90
16263;DHT22;8239;48.594;8.598;2023-04-03T12:45:52;7.60;66.70
16263;DHT22;8239;48.594;8.598;2023-04-03T12:48:25;7.50;66.80
16263;DHT22;8239;48.594;8.598;2023-04-03T12:50:53;7.30;66.40
16263;DHT22;8239;48.594;8.598;2023-04-03T12:53:23;7.20;66.60
16263;DHT22;8239;48.594;8.598;2023-04-03T12:55:55;7.10;67.20
16263;DHT22;8239;48.594;8.598;2023-04-03T12:58:24;6.90;66.60
16263;DHT22;8239;48.594;8.598;2023-04-03T13:01:02;6.80;66.70
16263;DHT22;8239;48.594;8.598;2023-04-03T13:03:30;6.70;66.60
16263;DHT22;8239;48.594;8.598;2023-04-03T13:05:59;6.50;66.90
16263;DHT22;8239;48.594;8.598;2023-04-03T13:08:28;6.50;68.00
16263;DHT22;8239;48.594;8.598;2023-04-03T13:11:00;6.40;68.80
16263;DHT22;8239;48.594;8.598;2023-04-03T13:13:29;6.20;68.80
16263;DHT22;8239;48.594;8.598;2023-04-03T13:15:57;6.10;69.00
16263;DHT22;8239;48.594;8.598;2023-04-03T13:18:27;6.00;70.00
16263;DHT22;8239;48.594;8.598;2023-04-03T13:21:01;5.90;70.10
16263;DHT22;8239;48.594;8.598;2023-04-03T13:23:30;6.00;70.70
16263;DHT22;8239;48.594;8.598;2023-04-03T13:25:59;6.10;70.70
16263;DHT22;8239;48.594;8.598;2023-04-03T13:28:31;6.30;70.80
16263;DHT22;8239;48.594;8.598;2023-04-03T13:31:08;6.60;71.20
16263;DHT22;8239;48.594;8.598;2023-04-03T13:33:37;7.20;71.00
16263;DHT22;8239;48.594;8.598;2023-04-03T13:36:08;7.80;70.00
16263;DHT22;8239;48.594;8.598;2023-04-03T13:38:42;8.20;67.80
16263;DHT22;8239;48.594;8.598;2023-04-03T13:41:25;8.30;63.20
16263;DHT22;8239;48.594;8.598;2023-04-03T13:43:53;8.20;61.30
16263;DHT22;8239;48.594;8.598;2023-04-03T13:46:25;7.70;61.10
16263;DHT22;8239;48.594;8.598;2023-04-03T13:48:55;7.40;62.40
16263;DHT22;8239;48.594;8.598;2023-04-03T13:51:24;7.10;63.50
16263;DHT22;8239;48.594;8.598;2023-04-03T13:53:55;6.70;63.50
16263;DHT22;8239;48.594;8.598;2023-04-03T13:56:34;6.50;64.60
16263;DHT22;8239;48.594;8.598;2023-04-03T13:59:19;6.40;66.10
16263;DHT22;8239;48.594;8.598;2023-04-03T14:01:50;6.30;66.60
16263;DHT22;8239;48.594;8.598;2023-04-03T14:04:20;6.30;66.10
16263;DHT22;8239;48.594;8.598;2023-04-03T14:06:48;6.30;66.60
16263;DHT22;8239;48.594;8.598;2023-04-03T14:09:18;6.40;65.90
16263;DHT22;8239;48.594;8.598;2023-04-03T14:11:53;6.50;65.30
16263;DHT22;8239;48.594;8.598;2023-04-03T14:14:22;6.60;64.40
16263;DHT22;8239;48.594;8.598;2023-04-03T14:16:53;6.90;64.80
16263;DHT22;8239;48.594;8.598;2023-04-03T14:19:23;7.50;64.50
16263;DHT22;8239;48.594;8.598;2023-04-03T14:22:00;8.00;62.70
16263;DHT22;8239;48.594;8.598;2023-04-03T14:24:35;8.10;60.30
16263;DHT22;8239;48.594;8.598;2023-04-03T14:27:18;8.10;60.40
16263;DHT22;8239;48.594;8.598;2023-04-03T14:29:51;7.80;58.70
16263;DHT22;8239;48.594;8.598;2023-04-03T14:32:23;7.50;58.90
16263;DHT22;8239;48.594;8.598;2023-04-03T14:34:51;7.20;59.40
16263;DHT22;8239;48.594;8.598;2023-04-03T14:37:21;6.90;59.50
16263;DHT22;8239;48.594;8.598;2023-04-03T14:39:49;6.70;60.20
16263;DHT22;8239;48.594;8.598;2023-04-03T14:42:20;6.60;61.30
16263;DHT22;8239;48.594;8.598;2023-04-03T14:44:48;6.70;61.70
16263;DHT22;8239;48.594;8.598;2023-04-03T14:47:18;6.80;62.20
16263;DHT22;8239;48.594;8.598;2023-04-03T14:49:46;6.90;63.20
16263;DHT22;8239;48.594;8.598;2023-04-03T14:52:19;7.10;62.00
16263;DHT22;8239;48.594;8.598;2023-04-03T14:54:46;7.20;60.10
16263;DHT22;8239;48.594;8.598;2023-04-03T14:57:14;7.20;59.20
16263;DHT22;8239;48.594;8.598;2023-04-03T14:59:43;7.20;58.70
16263;DHT22;8239;48.594;8.598;2023-04-03T15:02:24;7.00;58.50
16263;DHT22;8239;48.594;8.598;2023-04-03T15:04:51;6.90;59.50
16263;DHT22;8239;48.594;8.598;2023-04-03T15:07:18;6.70;60.30
16263;DHT22;8239;48.594;8.598;2023-04-03T15:09:45;6.60;61.00
16263;DHT22;8239;48.594;8.598;2023-04-03T15:12:12;6.50;61.40
16263;DHT22;8239;48.594;8.598;2023-04-03T15:14:39;6.30;61.50
16263;DHT22;8239;48.594;8.598;2023-04-03T15:17:13;6.20;61.50
16263;DHT22;8239;48.594;8.598;2023-04-03T15:19:41;6.10;61.50
16263;DHT22;8239;48.594;8.598;2023-04-03T15:22:13;6.00;61.20
16263;DHT22;8239;48.594;8.598;2023-04-03T15:24:41;5.90;61.20
16263;DHT22;8239;48.594;8.598;2023-04-03T15:27:08;5.90;61.60
16263;DHT22;8239;48.594;8.598;2023-04-03T15:29:36;5.80;61.80
16263;DHT22;8239;48.594;8.598;2023-04-03T15:32:04;5.80;62.00
16263;DHT22;8239;48.594;8.598;2023-04-03T15:34:33;5.90;62.50
16263;DHT22;8239;48.594;8.598;2023-04-03T15:37:00;6.00;63.20
16263;DHT22;8239;48.594;8.598;2023-04-03T15:39:27;6.10;63.30
16263;DHT22;8239;48.594;8.598;2023-04-03T15:41:55;6.10;63.50
16263;DHT22;8239;48.594;8.598;2023-04-03T15:44:25;6.10;62.90
16263;DHT22;8239;48.594;8.598;2023-04-03T15:46:52;6.00;61.90
16263;DHT22;8239;48.594;8.598;2023-04-03T15:49:21;5.90;61.70
16263;DHT22;8239;48.594;8.598;2023-04-03T15:51:49;5.80;61.70
16263;DHT22;8239;48.594;8.598;2023-04-03T15:54:16;5.80;61.60
16263;DHT22;8239;48.594;8.598;2023-04-03T15:56:44;5.70;61.70
16263;DHT22;8239;48.594;8.598;2023-04-03T15:59:11;5.60;61.90
16263;DHT22;8239;48.594;8.598;2023-04-03T16:01:38;5.60;62.20
16263;DHT22;8239;48.594;8.598;2023-04-03T16:04:07;5.60;62.60
16263;DHT22;8239;48.594;8.598;2023-04-03T16:06:36;5.50;62.90
16263;DHT22;8239;48.594;8.598;2023-04-03T16:09:04;5.50;63.20
16263;DHT22;8239;48.594;8.598;2023-04-03T16:11:32;5.50;63.70
16263;DHT22;8239;48.594;8.598;2023-04-03T16:14:00;5.50;63.90
16263;DHT22;8239;48.594;8.598;2023-04-03T16:16:28;5.40;64.10
16263;DHT22;8239;48.594;8.598;2023-04-03T16:18:56;5.40;64.30
16263;DHT22;8239;48.594;8.598;2023-04-03T16:21:24;5.40;63.90
16263;DHT22;8239;48.594;8.598;2023-04-03T16:23:51;5.90;66.20
16263;DHT22;8239;48.594;8.598;2023-04-03T16:26:20;7.00;66.40
16263;DHT22;8239;48.594;8.598;2023-04-03T16:28:47;8.80;63.80
16263;DHT22;8239;48.594;8.598;2023-04-03T16:31:14;10.10;57.30